sensor_id;sensor_type;location;lat;lon;timestamp;P1;durP1;ratioP1;P2;durP2;ratioP2
60472;SDS011;46318;52.716;6.444;2022-11-15T00:02:12;26.15;;;20.33;;
60472;SDS011;46318;52.716;6.444;2022-11-15T00:04:38;26.75;;;20.63;;
60472;SDS011;46318;52.716;6.444;2022-11-15T00:07:04;27.10;;;21.23;;
60472;SDS011;46318;52.716;6.444;2022-11-15T00:09:29;24.75;;;19.60;;
60472;SDS011;46318;52.716;6.444;2022-11-15T00:11:55;29.02;;;20.98;;
60472;SDS011;46318;52.716;6.444;2022-11-15T00:14:21;28.08;;;20.67;;
60472;SDS011;46318;52.716;6.444;2022-11-15T00:16:47;29.50;;;21.33;;
60472;SDS011;46318;52.716;6.444;2022-11-15T00:19:12;26.05;;;19.90;;
60472;SDS011;46318;52.716;6.444;2022-11-15T00:21:38;30.27;;;22.05;;
60472;SDS011;46318;52.716;6.444;2022-11-15T00:24:04;27.60;;;21.67;;
60472;SDS011;46318;52.716;6.444;2022-11-15T00:26:30;28.05;;;21.67;;
60472;SDS011;46318;52.716;6.444;2022-11-15T00:28:56;29.33;;;21.00;;
60472;SDS011;46318;52.716;6.444;2022-11-15T00:31:21;27.90;;;21.23;;
60472;SDS011;46318;52.716;6.444;2022-11-15T00:33:47;27.20;;;20.55;;
60472;SDS011;46318;52.716;6.444;2022-11-15T00:36:13;29.90;;;20.83;;
60472;SDS011;46318;52.716;6.444;2022-11-15T00:38:39;28.20;;;19.90;;
60472;SDS011;46318;52.716;6.444;2022-11-15T00:41:06;29.35;;;20.67;;
60472;SDS011;46318;52.716;6.444;2022-11-15T00:43:32;28.42;;;20.50;;
60472;SDS011;46318;52.716;6.444;2022-11-15T00:45:59;27.63;;;19.58;;
60472;SDS011;46318;52.716;6.444;2022-11-15T00:48:25;29.73;;;20.63;;
60472;SDS011;46318;52.716;6.444;2022-11-15T00:50:51;25.42;;;19.50;;
60472;SDS011;46318;52.716;6.444;2022-11-15T00:53:17;29.25;;;21.45;;
60472;SDS011;46318;52.716;6.444;2022-11-15T00:55:43;30.65;;;21.00;;
60472;SDS011;46318;52.716;6.444;2022-11-15T00:58:08;32.10;;;20.70;;
60472;SDS011;46318;52.716;6.444;2022-11-15T01:00:34;33.47;;;20.75;;
60472;SDS011;46318;52.716;6.444;2022-11-15T01:03:00;32.58;;;22.60;;
60472;SDS011;46318;52.716;6.444;2022-11-15T01:05:27;30.45;;;20.73;;
60472;SDS011;46318;52.716;6.444;2022-11-15T01:07:54;30.45;;;20.63;;
60472;SDS011;46318;52.716;6.444;2022-11-15T01:10:21;30.90;;;20.65;;
60472;SDS011;46318;52.716;6.444;2022-11-15T01:12:48;31.48;;;21.67;;
60472;SDS011;46318;52.716;6.444;2022-11-15T01:15:14;31.92;;;21.05;;
60472;SDS011;46318;52.716;6.444;2022-11-15T01:17:40;33.60;;;22.10;;
60472;SDS011;46318;52.716;6.444;2022-11-15T01:20:06;32.00;;;21.45;;
60472;SDS011;46318;52.716;6.444;2022-11-15T01:22:33;30.48;;;20.73;;
60472;SDS011;46318;52.716;6.444;2022-11-15T01:24:59;32.72;;;21.63;;
60472;SDS011;46318;52.716;6.444;2022-11-15T01:27:25;32.40;;;22.10;;
60472;SDS011;46318;52.716;6.444;2022-11-15T01:29:50;30.70;;;21.25;;
60472;SDS011;46318;52.716;6.444;2022-11-15T01:32:16;30.55;;;20.75;;
60472;SDS011;46318;52.716;6.444;2022-11-15T01:34:42;32.35;;;20.67;;
60472;SDS011;46318;52.716;6.444;2022-11-15T01:37:08;30.48;;;21.13;;
60472;SDS011;46318;52.716;6.444;2022-11-15T01:39:34;29.45;;;21.23;;
60472;SDS011;46318;52.716;6.444;2022-11-15T01:42:00;31.35;;;21.25;;
60472;SDS011;46318;52.716;6.444;2022-11-15T01:47:13;30.52;;;20.95;;
60472;SDS011;46318;52.716;6.444;2022-11-15T01:49:51;33.65;;;21.85;;
60472;SDS011;46318;52.716;6.444;2022-11-15T01:52:26;32.70;;;21.83;;
60472;SDS011;46318;52.716;6.444;2022-11-15T01:54:59;30.58;;;20.55;;
60472;SDS011;46318;52.716;6.444;2022-11-15T01:57:34;33.25;;;21.83;;
60472;SDS011;46318;52.716;6.444;2022-11-15T02:00:00;33.08;;;21.08;;
60472;SDS011;46318;52.716;6.444;2022-11-15T02:02:28;33.83;;;21.67;;
60472;SDS011;46318;52.716;6.444;2022-11-15T02:04:54;31.13;;;20.20;;
60472;SDS011;46318;52.716;6.444;2022-11-15T02:07:20;28.02;;;19.35;;
60472;SDS011;46318;52.716;6.444;2022-11-15T02:09:47;35.13;;;21.65;;
60472;SDS011;46318;52.716;6.444;2022-11-15T02:12:15;34.53;;;21.05;;
60472;SDS011;46318;52.716;6.444;2022-11-15T02:14:46;33.03;;;22.00;;
60472;SDS011;46318;52.716;6.444;2022-11-15T02:28:33;39.28;;;21.80;;
60472;SDS011;46318;52.716;6.444;2022-11-15T02:31:17;38.33;;;23.20;;
60472;SDS011;46318;52.716;6.444;2022-11-15T02:37:03;37.53;;;22.90;;
60472;SDS011;46318;52.716;6.444;2022-11-15T02:42:33;44.90;;;23.95;;
60472;SDS011;46318;52.716;6.444;2022-11-15T02:45:26;41.13;;;23.13;;
60472;SDS011;46318;52.716;6.444;2022-11-15T02:47:57;42.45;;;23.88;;
60472;SDS011;46318;52.716;6.444;2022-11-15T02:50:28;49.47;;;26.27;;
60472;SDS011;46318;52.716;6.444;2022-11-15T02:52:56;44.28;;;24.80;;
60472;SDS011;46318;52.716;6.444;2022-11-15T02:55:27;44.17;;;25.77;;
60472;SDS011;46318;52.716;6.444;2022-11-15T03:03:41;45.83;;;26.08;;
60472;SDS011;46318;52.716;6.444;2022-11-15T03:06:42;46.30;;;26.63;;
60472;SDS011;46318;52.716;6.444;2022-11-15T03:09:39;44.45;;;24.95;;
60472;SDS011;46318;52.716;6.444;2022-11-15T03:12:41;56.30;;;28.95;;
60472;SDS011;46318;52.716;6.444;2022-11-15T03:15:18;49.60;;;28.08;;
60472;SDS011;46318;52.716;6.444;2022-11-15T03:20:46;50.47;;;28.10;;
60472;SDS011;46318;52.716;6.444;2022-11-15T03:23:13;58.95;;;28.88;;
60472;SDS011;46318;52.716;6.444;2022-11-15T03:25:43;54.55;;;30.48;;
60472;SDS011;46318;52.716;6.444;2022-11-15T03:28:16;56.80;;;30.85;;
60472;SDS011;46318;52.716;6.444;2022-11-15T03:30:49;50.83;;;27.83;;
60472;SDS011;46318;52.716;6.444;2022-11-15T03:33:18;51.45;;;29.13;;
60472;SDS011;46318;52.716;6.444;2022-11-15T03:35:46;51.45;;;29.60;;
60472;SDS011;46318;52.716;6.444;2022-11-15T03:40:53;56.25;;;30.25;;
60472;SDS011;46318;52.716;6.444;2022-11-15T03:43:36;55.47;;;30.23;;
60472;SDS011;46318;52.716;6.444;2022-11-15T03:46:13;51.22;;;29.98;;
60472;SDS011;46318;52.716;6.444;2022-11-15T03:48:49;55.85;;;30.17;;
60472;SDS011;46318;52.716;6.444;2022-11-15T03:51:19;51.22;;;29.38;;
60472;SDS011;46318;52.716;6.444;2022-11-15T03:53:46;59.33;;;31.13;;
60472;SDS011;46318;52.716;6.444;2022-11-15T03:56:12;71.20;;;34.13;;
60472;SDS011;46318;52.716;6.444;2022-11-15T03:58:38;58.75;;;31.98;;
60472;SDS011;46318;52.716;6.444;2022-11-15T04:01:03;55.03;;;29.77;;
60472;SDS011;46318;52.716;6.444;2022-11-15T04:03:29;60.58;;;31.98;;
60472;SDS011;46318;52.716;6.444;2022-11-15T04:05:55;55.88;;;29.65;;
60472;SDS011;46318;52.716;6.444;2022-11-15T04:08:20;59.90;;;33.20;;
60472;SDS011;46318;52.716;6.444;2022-11-15T04:10:48;57.45;;;31.95;;
60472;SDS011;46318;52.716;6.444;2022-11-15T04:13:14;63.70;;;32.40;;
60472;SDS011;46318;52.716;6.444;2022-11-15T04:15:40;63.83;;;34.97;;
60472;SDS011;46318;52.716;6.444;2022-11-15T04:18:06;56.20;;;31.33;;
60472;SDS011;46318;52.716;6.444;2022-11-15T04:20:31;64.93;;;33.60;;
60472;SDS011;46318;52.716;6.444;2022-11-15T04:23:19;70.60;;;37.08;;
60472;SDS011;46318;52.716;6.444;2022-11-15T04:26:16;57.80;;;32.92;;
60472;SDS011;46318;52.716;6.444;2022-11-15T04:28:45;68.97;;;36.47;;
60472;SDS011;46318;52.716;6.444;2022-11-15T04:31:29;69.50;;;37.40;;
60472;SDS011;46318;52.716;6.444;2022-11-15T04:33:54;69.05;;;37.30;;
60472;SDS011;46318;52.716;6.444;2022-11-15T04:36:21;70.70;;;37.95;;
60472;SDS011;46318;52.716;6.444;2022-11-15T04:39:05;69.70;;;38.45;;
60472;SDS011;46318;52.716;6.444;2022-11-15T04:41:31;66.47;;;37.78;;
60472;SDS011;46318;52.716;6.444;2022-11-15T04:43:57;71.10;;;37.90;;
60472;SDS011;46318;52.716;6.444;2022-11-15T04:46:23;68.82;;;37.10;;
60472;SDS011;46318;52.716;6.444;2022-11-15T04:48:52;65.70;;;36.67;;
60472;SDS011;46318;52.716;6.444;2022-11-15T04:51:19;66.13;;;36.33;;
60472;SDS011;46318;52.716;6.444;2022-11-15T04:53:45;63.45;;;34.20;;
60472;SDS011;46318;52.716;6.444;2022-11-15T04:56:11;78.10;;;37.78;;
60472;SDS011;46318;52.716;6.444;2022-11-15T04:58:37;62.30;;;35.50;;
60472;SDS011;46318;52.716;6.444;2022-11-15T05:01:13;69.35;;;37.97;;
60472;SDS011;46318;52.716;6.444;2022-11-15T05:03:42;67.20;;;37.50;;
60472;SDS011;46318;52.716;6.444;2022-11-15T05:06:28;61.22;;;35.83;;
60472;SDS011;46318;52.716;6.444;2022-11-15T05:08:54;60.53;;;35.67;;
60472;SDS011;46318;52.716;6.444;2022-11-15T05:11:20;64.88;;;38.40;;
60472;SDS011;46318;52.716;6.444;2022-11-15T05:13:47;67.20;;;38.20;;
60472;SDS011;46318;52.716;6.444;2022-11-15T05:16:12;59.95;;;35.72;;
60472;SDS011;46318;52.716;6.444;2022-11-15T05:18:38;62.80;;;37.13;;
60472;SDS011;46318;52.716;6.444;2022-11-15T05:21:06;58.50;;;35.63;;
60472;SDS011;46318;52.716;6.444;2022-11-15T05:23:34;57.35;;;35.25;;
60472;SDS011;46318;52.716;6.444;2022-11-15T05:26:00;57.53;;;35.85;;
60472;SDS011;46318;52.716;6.444;2022-11-15T05:28:27;57.13;;;35.33;;
60472;SDS011;46318;52.716;6.444;2022-11-15T05:30:53;60.22;;;36.10;;
60472;SDS011;46318;52.716;6.444;2022-11-15T05:33:25;52.67;;;32.78;;
60472;SDS011;46318;52.716;6.444;2022-11-15T05:35:54;57.00;;;35.28;;
60472;SDS011;46318;52.716;6.444;2022-11-15T05:38:28;61.08;;;37.10;;
60472;SDS011;46318;52.716;6.444;2022-11-15T05:40:54;64.80;;;36.63;;
60472;SDS011;46318;52.716;6.444;2022-11-15T05:43:20;61.28;;;37.15;;
60472;SDS011;46318;52.716;6.444;2022-11-15T05:45:46;61.72;;;36.38;;
60472;SDS011;46318;52.716;6.444;2022-11-15T05:48:12;56.90;;;34.28;;
60472;SDS011;46318;52.716;6.444;2022-11-15T05:50:39;58.28;;;34.97;;
60472;SDS011;46318;52.716;6.444;2022-11-15T05:53:09;64.50;;;36.70;;
60472;SDS011;46318;52.716;6.444;2022-11-15T05:55:38;60.40;;;36.42;;
60472;SDS011;46318;52.716;6.444;2022-11-15T05:58:05;62.72;;;36.92;;
60472;SDS011;46318;52.716;6.444;2022-11-15T06:00:30;59.35;;;36.90;;
60472;SDS011;46318;52.716;6.444;2022-11-15T06:02:56;63.30;;;37.17;;
60472;SDS011;46318;52.716;6.444;2022-11-15T06:05:22;67.80;;;36.25;;
60472;SDS011;46318;52.716;6.444;2022-11-15T06:07:48;66.45;;;37.08;;
60472;SDS011;46318;52.716;6.444;2022-11-15T06:10:13;71.25;;;38.83;;
60472;SDS011;46318;52.716;6.444;2022-11-15T06:12:39;66.22;;;36.85;;
60472;SDS011;46318;52.716;6.444;2022-11-15T06:15:05;59.15;;;35.88;;
60472;SDS011;46318;52.716;6.444;2022-11-15T06:17:32;65.07;;;37.03;;
60472;SDS011;46318;52.716;6.444;2022-11-15T06:19:57;70.65;;;38.30;;
60472;SDS011;46318;52.716;6.444;2022-11-15T06:22:23;59.60;;;34.42;;
60472;SDS011;46318;52.716;6.444;2022-11-15T06:24:49;62.30;;;35.78;;
60472;SDS011;46318;52.716;6.444;2022-11-15T06:27:15;72.68;;;37.20;;
60472;SDS011;46318;52.716;6.444;2022-11-15T06:29:41;66.10;;;35.88;;
60472;SDS011;46318;52.716;6.444;2022-11-15T06:32:07;59.40;;;34.25;;
60472;SDS011;46318;52.716;6.444;2022-11-15T06:34:32;64.10;;;36.50;;
60472;SDS011;46318;52.716;6.444;2022-11-15T06:36:58;58.38;;;35.33;;
60472;SDS011;46318;52.716;6.444;2022-11-15T06:39:24;61.83;;;36.85;;
60472;SDS011;46318;52.716;6.444;2022-11-15T06:41:50;54.63;;;32.45;;
60472;SDS011;46318;52.716;6.444;2022-11-15T06:44:15;57.00;;;34.05;;
60472;SDS011;46318;52.716;6.444;2022-11-15T06:46:41;56.70;;;34.78;;
60472;SDS011;46318;52.716;6.444;2022-11-15T06:49:07;57.72;;;34.00;;
60472;SDS011;46318;52.716;6.444;2022-11-15T06:51:33;55.17;;;33.33;;
60472;SDS011;46318;52.716;6.444;2022-11-15T06:53:58;53.88;;;33.03;;
60472;SDS011;46318;52.716;6.444;2022-11-15T06:56:24;55.33;;;33.22;;
60472;SDS011;46318;52.716;6.444;2022-11-15T06:58:50;51.58;;;32.47;;
60472;SDS011;46318;52.716;6.444;2022-11-15T07:01:15;47.83;;;32.40;;
60472;SDS011;46318;52.716;6.444;2022-11-15T07:03:42;53.70;;;32.60;;
60472;SDS011;46318;52.716;6.444;2022-11-15T07:06:08;44.40;;;31.10;;
60472;SDS011;46318;52.716;6.444;2022-11-15T07:08:34;49.45;;;31.48;;
60472;SDS011;46318;52.716;6.444;2022-11-15T07:11:02;53.60;;;31.67;;
60472;SDS011;46318;52.716;6.444;2022-11-15T07:13:31;46.40;;;30.83;;
60472;SDS011;46318;52.716;6.444;2022-11-15T07:15:58;46.53;;;30.83;;
60472;SDS011;46318;52.716;6.444;2022-11-15T07:18:28;45.50;;;30.73;;
60472;SDS011;46318;52.716;6.444;2022-11-15T07:20:55;50.75;;;31.60;;
60472;SDS011;46318;52.716;6.444;2022-11-15T07:23:20;52.55;;;32.22;;
60472;SDS011;46318;52.716;6.444;2022-11-15T07:25:46;49.72;;;30.08;;
60472;SDS011;46318;52.716;6.444;2022-11-15T07:28:12;43.38;;;29.88;;
60472;SDS011;46318;52.716;6.444;2022-11-15T07:30:38;47.85;;;29.23;;
60472;SDS011;46318;52.716;6.444;2022-11-15T07:33:03;45.83;;;30.48;;
60472;SDS011;46318;52.716;6.444;2022-11-15T07:35:29;48.60;;;30.40;;
60472;SDS011;46318;52.716;6.444;2022-11-15T07:37:59;45.78;;;30.17;;
60472;SDS011;46318;52.716;6.444;2022-11-15T07:40:28;42.53;;;29.65;;
60472;SDS011;46318;52.716;6.444;2022-11-15T07:43:06;45.17;;;28.88;;
60472;SDS011;46318;52.716;6.444;2022-11-15T07:45:33;43.28;;;29.92;;
60472;SDS011;46318;52.716;6.444;2022-11-15T07:47:59;44.13;;;28.17;;
60472;SDS011;46318;52.716;6.444;2022-11-15T07:50:25;46.28;;;28.77;;
60472;SDS011;46318;52.716;6.444;2022-11-15T07:52:58;42.83;;;28.45;;
60472;SDS011;46318;52.716;6.444;2022-11-15T07:55:25;43.90;;;29.55;;
60472;SDS011;46318;52.716;6.444;2022-11-15T07:57:53;41.60;;;29.58;;
60472;SDS011;46318;52.716;6.444;2022-11-15T08:00:30;44.15;;;28.80;;
60472;SDS011;46318;52.716;6.444;2022-11-15T08:05:35;40.67;;;27.63;;
60472;SDS011;46318;52.716;6.444;2022-11-15T08:08:03;42.20;;;28.90;;
60472;SDS011;46318;52.716;6.444;2022-11-15T08:10:30;45.80;;;29.73;;
60472;SDS011;46318;52.716;6.444;2022-11-15T08:13:06;43.22;;;28.85;;
60472;SDS011;46318;52.716;6.444;2022-11-15T08:15:34;48.45;;;28.98;;
60472;SDS011;46318;52.716;6.444;2022-11-15T08:18:02;40.25;;;26.90;;
60472;SDS011;46318;52.716;6.444;2022-11-15T08:20:31;38.40;;;27.27;;
60472;SDS011;46318;52.716;6.444;2022-11-15T08:22:58;39.13;;;27.35;;
60472;SDS011;46318;52.716;6.444;2022-11-15T08:25:26;40.40;;;27.13;;
60472;SDS011;46318;52.716;6.444;2022-11-15T08:27:54;45.17;;;28.58;;
60472;SDS011;46318;52.716;6.444;2022-11-15T08:30:22;40.38;;;28.58;;
60472;SDS011;46318;52.716;6.444;2022-11-15T08:32:49;43.40;;;28.80;;
60472;SDS011;46318;52.716;6.444;2022-11-15T08:35:17;41.78;;;27.92;;
60472;SDS011;46318;52.716;6.444;2022-11-15T08:37:44;41.85;;;28.67;;
60472;SDS011;46318;52.716;6.444;2022-11-15T08:40:10;45.92;;;29.95;;
60472;SDS011;46318;52.716;6.444;2022-11-15T08:42:36;42.55;;;28.60;;
60472;SDS011;46318;52.716;6.444;2022-11-15T08:45:02;42.38;;;29.73;;
60472;SDS011;46318;52.716;6.444;2022-11-15T08:47:29;42.35;;;28.70;;
60472;SDS011;46318;52.716;6.444;2022-11-15T08:49:55;44.72;;;29.52;;
60472;SDS011;46318;52.716;6.444;2022-11-15T08:52:21;44.72;;;29.42;;
60472;SDS011;46318;52.716;6.444;2022-11-15T08:54:47;40.97;;;28.55;;
60472;SDS011;46318;52.716;6.444;2022-11-15T08:57:12;43.33;;;29.13;;
60472;SDS011;46318;52.716;6.444;2022-11-15T08:59:38;44.53;;;28.55;;
60472;SDS011;46318;52.716;6.444;2022-11-15T09:02:04;43.03;;;27.42;;
60472;SDS011;46318;52.716;6.444;2022-11-15T09:04:30;41.60;;;27.55;;
60472;SDS011;46318;52.716;6.444;2022-11-15T09:06:57;38.38;;;27.63;;
60472;SDS011;46318;52.716;6.444;2022-11-15T09:09:23;42.65;;;27.52;;
60472;SDS011;46318;52.716;6.444;2022-11-15T09:11:48;40.08;;;27.60;;
60472;SDS011;46318;52.716;6.444;2022-11-15T09:14:15;39.67;;;27.70;;
60472;SDS011;46318;52.716;6.444;2022-11-15T09:16:41;37.22;;;27.25;;
60472;SDS011;46318;52.716;6.444;2022-11-15T09:19:07;42.28;;;27.85;;
60472;SDS011;46318;52.716;6.444;2022-11-15T09:21:33;40.38;;;26.98;;
60472;SDS011;46318;52.716;6.444;2022-11-15T09:23:58;39.67;;;26.77;;
60472;SDS011;46318;52.716;6.444;2022-11-15T09:26:24;33.92;;;26.00;;
60472;SDS011;46318;52.716;6.444;2022-11-15T09:28:50;34.85;;;26.23;;
60472;SDS011;46318;52.716;6.444;2022-11-15T09:31:16;36.97;;;25.25;;
60472;SDS011;46318;52.716;6.444;2022-11-15T09:33:45;36.63;;;24.52;;
60472;SDS011;46318;52.716;6.444;2022-11-15T09:36:11;35.85;;;24.17;;
60472;SDS011;46318;52.716;6.444;2022-11-15T09:38:37;34.55;;;23.55;;
60472;SDS011;46318;52.716;6.444;2022-11-15T09:49:31;32.03;;;21.80;;
60472;SDS011;46318;52.716;6.444;2022-11-15T09:51:57;29.35;;;21.23;;
60472;SDS011;46318;52.716;6.444;2022-11-15T09:54:29;29.05;;;19.60;;
60472;SDS011;46318;52.716;6.444;2022-11-15T10:00:08;25.42;;;18.75;;
60472;SDS011;46318;52.716;6.444;2022-11-15T10:03:07;23.00;;;18.27;;
60472;SDS011;46318;52.716;6.444;2022-11-15T10:06:21;22.13;;;15.30;;
60472;SDS011;46318;52.716;6.444;2022-11-15T10:11:22;17.13;;;15.00;;
60472;SDS011;46318;52.716;6.444;2022-11-15T10:13:56;20.88;;;15.73;;
60472;SDS011;46318;52.716;6.444;2022-11-15T10:22:16;18.45;;;14.43;;
60472;SDS011;46318;52.716;6.444;2022-11-15T10:27:34;12.90;;;11.52;;
60472;SDS011;46318;52.716;6.444;2022-11-15T10:30:00;10.88;;;9.38;;
60472;SDS011;46318;52.716;6.444;2022-11-15T10:32:29;12.10;;;9.57;;
60472;SDS011;46318;52.716;6.444;2022-11-15T10:34:58;11.18;;;8.07;;
60472;SDS011;46318;52.716;6.444;2022-11-15T10:37:27;10.23;;;8.90;;
60472;SDS011;46318;52.716;6.444;2022-11-15T10:42:37;10.13;;;8.25;;
60472;SDS011;46318;52.716;6.444;2022-11-15T10:45:08;11.77;;;8.70;;
60472;SDS011;46318;52.716;6.444;2022-11-15T10:50:46;10.13;;;6.85;;
60472;SDS011;46318;52.716;6.444;2022-11-15T10:55:53;9.98;;;6.85;;
60472;SDS011;46318;52.716;6.444;2022-11-15T10:58:31;8.25;;;6.75;;
60472;SDS011;46318;52.716;6.444;2022-11-15T11:01:09;6.60;;;5.95;;
60472;SDS011;46318;52.716;6.444;2022-11-15T11:03:44;11.10;;;6.93;;
60472;SDS011;46318;52.716;6.444;2022-11-15T11:06:26;9.60;;;6.93;;
60472;SDS011;46318;52.716;6.444;2022-11-15T11:08:59;8.48;;;6.32;;
60472;SDS011;46318;52.716;6.444;2022-11-15T11:11:45;6.75;;;6.13;;
60472;SDS011;46318;52.716;6.444;2022-11-15T11:14:49;6.57;;;5.95;;
60472;SDS011;46318;52.716;6.444;2022-11-15T11:25:59;8.25;;;5.55;;
60472;SDS011;46318;52.716;6.444;2022-11-15T11:34:13;6.45;;;4.63;;
60472;SDS011;46318;52.716;6.444;2022-11-15T11:37:23;6.03;;;4.45;;
60472;SDS011;46318;52.716;6.444;2022-11-15T11:40:28;8.25;;;4.38;;
60472;SDS011;46318;52.716;6.444;2022-11-15T11:43:13;7.88;;;4.50;;
60472;SDS011;46318;52.716;6.444;2022-11-15T11:48:40;5.55;;;3.50;;
60472;SDS011;46318;52.716;6.444;2022-11-15T11:51:21;5.63;;;3.42;;
60472;SDS011;46318;52.716;6.444;2022-11-15T11:54:03;4.95;;;3.88;;
60472;SDS011;46318;52.716;6.444;2022-11-15T11:56:43;4.95;;;3.90;;
60472;SDS011;46318;52.716;6.444;2022-11-15T12:02:29;6.95;;;4.47;;
60472;SDS011;46318;52.716;6.444;2022-11-15T12:11:13;7.28;;;4.88;;
60472;SDS011;46318;52.716;6.444;2022-11-15T12:13:47;5.00;;;3.65;;
60472;SDS011;46318;52.716;6.444;2022-11-15T12:16:22;4.50;;;3.40;;
60472;SDS011;46318;52.716;6.444;2022-11-15T12:18:54;6.07;;;3.60;;
60472;SDS011;46318;52.716;6.444;2022-11-15T12:21:39;5.35;;;3.45;;
60472;SDS011;46318;52.716;6.444;2022-11-15T12:24:38;3.58;;;2.92;;
60472;SDS011;46318;52.716;6.444;2022-11-15T12:27:20;6.45;;;3.90;;
60472;SDS011;46318;52.716;6.444;2022-11-15T12:30:17;5.50;;;3.50;;
60472;SDS011;46318;52.716;6.444;2022-11-15T12:32:53;6.03;;;3.60;;
60472;SDS011;46318;52.716;6.444;2022-11-15T12:35:24;5.90;;;3.55;;
60472;SDS011;46318;52.716;6.444;2022-11-15T12:37:53;3.88;;;3.30;;
60472;SDS011;46318;52.716;6.444;2022-11-15T12:40:30;4.47;;;3.47;;
60472;SDS011;46318;52.716;6.444;2022-11-15T12:45:44;5.40;;;3.33;;
60472;SDS011;46318;52.716;6.444;2022-11-15T12:56:17;4.10;;;2.90;;
60472;SDS011;46318;52.716;6.444;2022-11-15T12:58:45;4.53;;;2.80;;
60472;SDS011;46318;52.716;6.444;2022-11-15T13:06:45;4.53;;;3.08;;
60472;SDS011;46318;52.716;6.444;2022-11-15T13:17:32;3.20;;;2.10;;
60472;SDS011;46318;52.716;6.444;2022-11-15T13:20:31;2.92;;;2.03;;
60472;SDS011;46318;52.716;6.444;2022-11-15T13:28:33;2.05;;;1.38;;
60472;SDS011;46318;52.716;6.444;2022-11-15T13:31:30;3.13;;;1.60;;
60472;SDS011;46318;52.716;6.444;2022-11-15T13:34:13;2.90;;;1.70;;
60472;SDS011;46318;52.716;6.444;2022-11-15T13:36:51;3.15;;;1.55;;
60472;SDS011;46318;52.716;6.444;2022-11-15T13:39:33;2.63;;;1.60;;
60472;SDS011;46318;52.716;6.444;2022-11-15T13:42:02;2.72;;;1.45;;
60472;SDS011;46318;52.716;6.444;2022-11-15T13:44:29;4.05;;;1.35;;
60472;SDS011;46318;52.716;6.444;2022-11-15T13:47:09;3.53;;;1.20;;
60472;SDS011;46318;52.716;6.444;2022-11-15T13:49:39;5.13;;;1.58;;
60472;SDS011;46318;52.716;6.444;2022-11-15T13:52:07;2.47;;;1.25;;
60472;SDS011;46318;52.716;6.444;2022-11-15T13:54:43;2.75;;;1.35;;
60472;SDS011;46318;52.716;6.444;2022-11-15T13:59:51;4.10;;;1.10;;
60472;SDS011;46318;52.716;6.444;2022-11-15T14:02:30;2.65;;;1.23;;
60472;SDS011;46318;52.716;6.444;2022-11-15T14:05:03;2.22;;;1.45;;
60472;SDS011;46318;52.716;6.444;2022-11-15T14:07:44;2.85;;;1.40;;
60472;SDS011;46318;52.716;6.444;2022-11-15T14:10:36;2.35;;;1.15;;
60472;SDS011;46318;52.716;6.444;2022-11-15T14:13:04;1.90;;;1.48;;
60472;SDS011;46318;52.716;6.444;2022-11-15T14:15:52;1.60;;;1.50;;
60472;SDS011;46318;52.716;6.444;2022-11-15T14:21:16;6.07;;;2.70;;
60472;SDS011;46318;52.716;6.444;2022-11-15T14:23:44;3.75;;;2.10;;
60472;SDS011;46318;52.716;6.444;2022-11-15T14:28:57;3.28;;;1.83;;
60472;SDS011;46318;52.716;6.444;2022-11-15T14:31:54;4.35;;;2.20;;
60472;SDS011;46318;52.716;6.444;2022-11-15T14:34:45;3.08;;;2.38;;
60472;SDS011;46318;52.716;6.444;2022-11-15T14:37:16;2.95;;;2.65;;
60472;SDS011;46318;52.716;6.444;2022-11-15T14:39:47;3.03;;;2.83;;
60472;SDS011;46318;52.716;6.444;2022-11-15T14:42:13;4.28;;;3.30;;
60472;SDS011;46318;52.716;6.444;2022-11-15T14:44:39;4.38;;;3.25;;
60472;SDS011;46318;52.716;6.444;2022-11-15T14:47:05;4.40;;;3.80;;
60472;SDS011;46318;52.716;6.444;2022-11-15T14:49:31;5.68;;;4.05;;
60472;SDS011;46318;52.716;6.444;2022-11-15T14:51:57;5.20;;;4.57;;
60472;SDS011;46318;52.716;6.444;2022-11-15T14:54:23;5.10;;;4.70;;
60472;SDS011;46318;52.716;6.444;2022-11-15T14:56:48;5.85;;;5.25;;
60472;SDS011;46318;52.716;6.444;2022-11-15T14:59:14;9.93;;;6.00;;
60472;SDS011;46318;52.716;6.444;2022-11-15T15:01:40;7.90;;;5.63;;
60472;SDS011;46318;52.716;6.444;2022-11-15T15:04:05;6.50;;;5.80;;
60472;SDS011;46318;52.716;6.444;2022-11-15T15:06:31;6.45;;;5.85;;
60472;SDS011;46318;52.716;6.444;2022-11-15T15:08:57;7.32;;;6.35;;
60472;SDS011;46318;52.716;6.444;2022-11-15T15:11:23;6.88;;;5.93;;
60472;SDS011;46318;52.716;6.444;2022-11-15T15:13:52;7.40;;;6.70;;
60472;SDS011;46318;52.716;6.444;2022-11-15T15:16:22;7.25;;;6.55;;
60472;SDS011;46318;52.716;6.444;2022-11-15T15:18:48;7.55;;;6.85;;
60472;SDS011;46318;52.716;6.444;2022-11-15T15:21:24;8.65;;;7.75;;
60472;SDS011;46318;52.716;6.444;2022-11-15T15:23:52;8.75;;;7.85;;
60472;SDS011;46318;52.716;6.444;2022-11-15T15:26:19;9.20;;;7.95;;
60472;SDS011;46318;52.716;6.444;2022-11-15T15:28:45;10.13;;;8.55;;
60472;SDS011;46318;52.716;6.444;2022-11-15T15:31:13;8.85;;;7.88;;
60472;SDS011;46318;52.716;6.444;2022-11-15T15:33:39;8.45;;;7.65;;
60472;SDS011;46318;52.716;6.444;2022-11-15T15:36:08;8.40;;;7.60;;
60472;SDS011;46318;52.716;6.444;2022-11-15T15:38:39;8.40;;;7.60;;
60472;SDS011;46318;52.716;6.444;2022-11-15T15:41:09;8.07;;;7.38;;
60472;SDS011;46318;52.716;6.444;2022-11-15T15:43:39;7.72;;;7.13;;
60472;SDS011;46318;52.716;6.444;2022-11-15T15:46:12;7.75;;;7.05;;
60472;SDS011;46318;52.716;6.444;2022-11-15T15:48:42;8.70;;;7.80;;
60472;SDS011;46318;52.716;6.444;2022-11-15T15:51:09;8.00;;;7.20;;
60472;SDS011;46318;52.716;6.444;2022-11-15T15:53:35;7.68;;;6.93;;
60472;SDS011;46318;52.716;6.444;2022-11-15T15:56:01;6.45;;;5.85;;
60472;SDS011;46318;52.716;6.444;2022-11-15T15:58:27;6.80;;;6.10;;
60472;SDS011;46318;52.716;6.444;2022-11-15T16:00:53;6.15;;;5.43;;
60472;SDS011;46318;52.716;6.444;2022-11-15T16:03:19;7.72;;;6.07;;
60472;SDS011;46318;52.716;6.444;2022-11-15T16:05:45;6.90;;;6.20;;
60472;SDS011;46318;52.716;6.444;2022-11-15T16:08:18;5.93;;;4.90;;
60472;SDS011;46318;52.716;6.444;2022-11-15T16:10:48;6.75;;;4.90;;
60472;SDS011;46318;52.716;6.444;2022-11-15T16:13:14;5.15;;;4.65;;
60472;SDS011;46318;52.716;6.444;2022-11-15T16:15:40;4.93;;;4.35;;
60472;SDS011;46318;52.716;6.444;2022-11-15T16:18:16;5.32;;;3.75;;
60472;SDS011;46318;52.716;6.444;2022-11-15T16:20:44;5.30;;;3.90;;
60472;SDS011;46318;52.716;6.444;2022-11-15T16:23:16;4.57;;;3.97;;
60472;SDS011;46318;52.716;6.444;2022-11-15T16:25:48;5.55;;;4.05;;
60472;SDS011;46318;52.716;6.444;2022-11-15T16:28:24;5.38;;;3.90;;
60472;SDS011;46318;52.716;6.444;2022-11-15T16:31:11;4.55;;;3.70;;
60472;SDS011;46318;52.716;6.444;2022-11-15T16:33:37;6.78;;;4.68;;
60472;SDS011;46318;52.716;6.444;2022-11-15T16:36:05;6.60;;;4.85;;
60472;SDS011;46318;52.716;6.444;2022-11-15T16:38:48;5.38;;;3.35;;
60472;SDS011;46318;52.716;6.444;2022-11-15T16:41:15;4.43;;;2.85;;
60472;SDS011;46318;52.716;6.444;2022-11-15T16:43:46;3.35;;;2.60;;
60472;SDS011;46318;52.716;6.444;2022-11-15T16:48:43;4.10;;;2.35;;
60472;SDS011;46318;52.716;6.444;2022-11-15T16:51:10;3.45;;;2.40;;
60472;SDS011;46318;52.716;6.444;2022-11-15T16:53:35;2.63;;;2.35;;
60472;SDS011;46318;52.716;6.444;2022-11-15T16:56:01;2.95;;;2.35;;
60472;SDS011;46318;52.716;6.444;2022-11-15T16:58:28;2.67;;;2.42;;
60472;SDS011;46318;52.716;6.444;2022-11-15T17:00:54;2.95;;;2.08;;
60472;SDS011;46318;52.716;6.444;2022-11-15T17:03:21;8.93;;;2.28;;